KEPH/EPH METAR and TAF weather

Enter ICAO airport designator
Station Type Date Time Source
KEPH METAR 2021/02/25 01:53 UTC NOAA

KEPH 250153Z AUTO 17007KT 10SM CLR 02/M06 A3045 RMK AO2 SLP323 T00221056


Station Type Date Time Source
KEPH Decoded METAR 2021/02/25 01:53 UTC NOAA

EPHRATA MUNICIPAL AIRPORT, WA, United States (KEPH) 47-18N 119-31W 383M
Feb 24, 2021 - 08:53 PM EST / 2021.02.25 0153 UTC
Wind: from the S (170 degrees) at 8 MPH (7 KT):0
Visibility: 10 mile(s):0
Sky conditions: clear
Temperature: 36.0 F (2.2 C)
Dew Point: 21.9 F (-5.6 C)
Relative Humidity: 56%
Pressure (altimeter): 30.45 in. Hg (1031 hPa)
ob: KEPH 250153Z AUTO 17007KT 10SM CLR 02/M06 A3045 RMK AO2 SLP323 T00221056
cycle: 2

Station Type Date Time Source
KEPH TAF UTC NOAA

Error!

Example: see airport list